createdAt,value
2019-02-09T00:00:00.722Z,6.20
2019-02-09T00:02:35.278Z,9.13
2019-02-09T00:05:06.026Z,8.57
2019-02-09T00:07:36.851Z,9.17
2019-02-09T00:10:08.097Z,12.40
2019-02-09T00:12:39.542Z,9.80
2019-02-09T00:15:09.885Z,9.23
2019-02-09T00:17:42.697Z,7.20
2019-02-09T00:20:13.100Z,6.63
2019-02-09T00:22:43.720Z,12.07
2019-02-09T00:25:14.446Z,9.83
2019-02-09T00:27:45.184Z,9.77
2019-02-09T00:30:17.851Z,9.60
2019-02-09T00:32:50.418Z,8.03
2019-02-09T00:35:21.551Z,13.37
2019-02-09T00:37:52.281Z,8.47
2019-02-09T00:40:23.631Z,9.17
2019-02-09T00:42:56.295Z,8.57
2019-02-09T00:45:26.869Z,6.87
2019-02-09T00:48:00.388Z,8.33
2019-02-09T00:50:31.031Z,9.57
2019-02-09T00:53:02.549Z,10.97
2019-02-09T00:55:33.165Z,7.10
2019-02-09T00:58:03.830Z,7.63
2019-02-09T01:00:34.159Z,7.17
2019-02-09T01:03:07.280Z,6.13
2019-02-09T01:05:43.238Z,8.70
2019-02-09T01:08:15.693Z,8.10
2019-02-09T01:10:46.493Z,5.20
2019-02-09T01:13:18.478Z,7.40
2019-02-09T01:15:50.241Z,6.93
2019-02-09T01:18:21.916Z,4.77
2019-02-09T01:20:52.568Z,5.47
2019-02-09T01:23:25.911Z,4.93
2019-02-09T01:25:58.626Z,4.40
2019-02-09T01:28:29.027Z,5.93
2019-02-09T01:30:59.835Z,5.27
2019-02-09T01:33:30.880Z,6.60
2019-02-09T01:36:01.100Z,4.73
2019-02-09T01:38:31.354Z,3.30
2019-02-09T01:41:03.184Z,4.93
2019-02-09T01:43:37.321Z,4.93
2019-02-09T01:46:07.771Z,3.27
2019-02-09T01:48:38.079Z,3.30
2019-02-09T01:51:09.938Z,6.03
2019-02-09T01:53:42.764Z,3.93
2019-02-09T01:56:13.579Z,4.67
2019-02-09T01:58:44.335Z,4.10
2019-02-09T02:01:16.408Z,2.80
2019-02-09T02:03:47.073Z,5.63
2019-02-09T02:06:18.380Z,3.53
2019-02-09T02:08:51.945Z,5.57
2019-02-09T02:11:23.065Z,5.97
2019-02-09T02:13:54.176Z,5.07
2019-02-09T02:16:25.454Z,3.90
2019-02-09T02:18:56.643Z,3.83
2019-02-09T02:21:28.154Z,3.40
2019-02-09T02:24:01.204Z,6.93
2019-02-09T02:26:32.296Z,7.10
2019-02-09T02:29:02.466Z,4.00
2019-02-09T02:31:32.778Z,5.37
2019-02-09T02:34:03.480Z,6.47
2019-02-09T02:36:35.236Z,8.67
2019-02-09T02:39:10.817Z,6.63
2019-02-09T02:41:41.353Z,6.47
2019-02-09T02:44:15.948Z,6.53
2019-02-09T02:46:47.445Z,5.27
2019-02-09T02:49:19.034Z,5.67
2019-02-09T02:51:49.995Z,3.83
2019-02-09T02:54:21.241Z,4.90
2019-02-09T02:56:51.928Z,7.17
2019-02-09T02:59:22.219Z,5.23
2019-02-09T03:01:53.465Z,5.30
2019-02-09T03:04:24.061Z,3.33
2019-02-09T03:06:54.785Z,4.50
2019-02-09T03:09:26.043Z,4.53
2019-02-09T03:11:59.695Z,2.97
2019-02-09T03:14:30.934Z,2.13
2019-02-09T03:17:01.598Z,1.77
2019-02-09T03:19:32.324Z,1.70
2019-02-09T03:22:02.525Z,5.80
2019-02-09T03:24:32.756Z,3.13
2019-02-09T03:27:05.797Z,3.80
2019-02-09T03:29:36.010Z,2.83
2019-02-09T03:32:06.214Z,1.63
2019-02-09T03:34:37.788Z,5.27
2019-02-09T03:37:08.324Z,4.03
2019-02-09T03:39:39.977Z,3.83
2019-02-09T03:42:11.177Z,3.13
2019-02-09T03:44:43.203Z,3.80
2019-02-09T03:47:15.389Z,6.67
2019-02-09T03:49:47.373Z,4.80
2019-02-09T03:52:18.435Z,4.27
2019-02-09T03:54:50.102Z,4.57
2019-02-09T03:57:21.814Z,5.03
2019-02-09T03:59:51.995Z,4.80
2019-02-09T04:02:24.304Z,3.63
2019-02-09T04:04:54.493Z,3.40
2019-02-09T04:07:25.205Z,4.50
2019-02-09T04:09:57.664Z,4.67
2019-02-09T04:12:30.262Z,4.60
2019-02-09T04:15:02.799Z,4.10
2019-02-09T04:17:35.479Z,5.27
2019-02-09T04:20:10.162Z,6.63
2019-02-09T04:22:41.717Z,3.57
2019-02-09T04:25:13.932Z,3.57
2019-02-09T04:27:45.833Z,4.77
2019-02-09T04:30:20.446Z,4.90
2019-02-09T04:32:52.390Z,3.80
2019-02-09T04:35:24.921Z,7.67
2019-02-09T04:37:55.498Z,8.87
2019-02-09T04:40:29.460Z,15.70
2019-02-09T04:43:00.964Z,12.30
2019-02-09T04:45:34.514Z,10.23
2019-02-09T04:48:06.583Z,11.20
2019-02-09T04:50:39.666Z,9.47
2019-02-09T04:53:12.249Z,8.60
2019-02-09T04:55:44.110Z,9.17
2019-02-09T04:58:16.071Z,9.00
2019-02-09T05:00:47.192Z,9.30
2019-02-09T05:03:19.716Z,7.27
2019-02-09T05:05:52.454Z,9.23
2019-02-09T05:08:23.105Z,8.80
2019-02-09T05:10:55.283Z,9.80
2019-02-09T05:13:26.771Z,10.53
2019-02-09T05:15:58.883Z,10.37
2019-02-09T05:18:30.923Z,9.60
2019-02-09T05:21:03.699Z,8.40
2019-02-09T05:23:36.901Z,11.53
2019-02-09T05:26:08.882Z,10.13
2019-02-09T05:28:39.962Z,7.30
2019-02-09T05:31:12.387Z,7.87
2019-02-09T05:33:43.012Z,8.33
2019-02-09T05:36:18.291Z,6.17
2019-02-09T05:38:48.888Z,6.20
2019-02-09T05:41:20.218Z,8.07
2019-02-09T05:43:51.253Z,11.33
2019-02-09T05:46:24.576Z,9.70
2019-02-09T05:48:57.027Z,9.63
2019-02-09T05:51:29.612Z,6.23
2019-02-09T05:54:00.959Z,10.77
2019-02-09T05:56:35.402Z,6.50
2019-02-09T05:59:08.053Z,10.20
2019-02-09T06:01:39.065Z,6.20
2019-02-09T06:04:09.838Z,8.83
2019-02-09T06:06:42.528Z,9.17
2019-02-09T06:09:13.156Z,11.53
2019-02-09T06:11:45.021Z,12.37
2019-02-09T06:14:15.568Z,9.50
2019-02-09T06:16:47.784Z,8.43
2019-02-09T06:19:18.344Z,8.57
2019-02-09T06:21:48.539Z,10.20
2019-02-09T06:24:19.460Z,12.33
2019-02-09T06:26:50.858Z,10.17
2019-02-09T06:29:21.115Z,9.90
2019-02-09T06:31:52.105Z,12.63
2019-02-09T06:34:22.360Z,11.47
2019-02-09T06:36:55.876Z,7.13
2019-02-09T06:39:31.384Z,12.43
2019-02-09T06:42:02.810Z,10.50
2019-02-09T06:44:34.042Z,11.67
2019-02-09T06:47:07.802Z,13.53
2019-02-09T06:49:39.778Z,11.53
2019-02-09T06:52:09.980Z,12.87
2019-02-09T06:54:40.283Z,14.43
2019-02-09T06:57:11.808Z,17.23
2019-02-09T06:59:42.505Z,7.93
2019-02-09T07:02:15.338Z,9.87
2019-02-09T07:04:46.729Z,14.33
2019-02-09T07:07:18.684Z,9.60
2019-02-09T07:09:52.282Z,8.93
2019-02-09T07:12:25.191Z,10.37
2019-02-09T07:14:55.455Z,13.43
2019-02-09T07:17:26.642Z,7.30
2019-02-09T07:19:56.949Z,13.13
2019-02-09T07:22:30.017Z,12.87
2019-02-09T07:25:00.348Z,10.73
2019-02-09T07:27:32.405Z,10.17
2019-02-09T07:30:03.126Z,12.47
2019-02-09T07:32:34.942Z,13.73
2019-02-09T07:35:06.940Z,7.93
2019-02-09T07:37:37.850Z,11.20
2019-02-09T07:40:12.233Z,9.90
2019-02-09T07:42:44.528Z,17.90
2019-02-09T07:45:18.077Z,10.03
2019-02-09T07:47:50.675Z,10.67
2019-02-09T07:50:22.945Z,13.30
2019-02-09T07:52:54.941Z,12.70
2019-02-09T07:55:26.534Z,14.70
2019-02-09T07:57:58.765Z,9.90
2019-02-09T08:00:30.235Z,11.77
2019-02-09T08:03:02.817Z,9.73
2019-02-09T08:05:36.739Z,13.43
2019-02-09T08:08:08.820Z,11.90
2019-02-09T08:10:40.462Z,13.73
2019-02-09T08:13:12.411Z,10.50
2019-02-09T08:15:45.805Z,12.17
2019-02-09T08:18:16.669Z,12.67
2019-02-09T08:20:49.033Z,9.50
2019-02-09T08:23:19.444Z,11.83
2019-02-09T08:25:52.129Z,11.97
2019-02-09T08:28:24.002Z,11.03
2019-02-09T08:30:56.047Z,17.30
2019-02-09T08:33:27.082Z,12.43
2019-02-09T08:35:58.155Z,17.90
2019-02-09T08:38:28.407Z,11.03
2019-02-09T08:40:58.902Z,13.17
2019-02-09T08:43:30.600Z,14.47
2019-02-09T08:46:01.250Z,17.20
2019-02-09T08:48:33.937Z,9.10
2019-02-09T08:51:10.349Z,14.33
2019-02-09T08:53:43.633Z,22.17
2019-02-09T08:56:15.583Z,13.23
2019-02-09T08:58:47.912Z,17.03
2019-02-09T09:01:19.482Z,14.40
2019-02-09T09:03:52.172Z,12.40
2019-02-09T09:06:25.856Z,19.20
2019-02-09T09:08:57.800Z,19.07
2019-02-09T09:11:28.772Z,18.40
2019-02-09T09:14:00.721Z,22.47
2019-02-09T09:16:32.255Z,17.67
2019-02-09T09:19:03.831Z,17.33
2019-02-09T09:21:34.832Z,14.47
2019-02-09T09:24:05.907Z,17.33
2019-02-09T09:26:37.902Z,19.90
2019-02-09T09:29:09.633Z,15.50
2019-02-09T09:31:41.050Z,14.30
2019-02-09T09:34:11.848Z,21.97
2019-02-09T09:36:43.530Z,15.17
2019-02-09T09:39:13.840Z,13.80
2019-02-09T09:41:45.760Z,17.23
2019-02-09T09:44:17.726Z,19.37
2019-02-09T09:46:49.234Z,13.43
2019-02-09T09:49:20.509Z,13.03
2019-02-09T09:51:50.757Z,17.27
2019-02-09T09:54:21.441Z,13.50
2019-02-09T09:56:53.563Z,17.63
2019-02-09T09:59:25.615Z,17.30
2019-02-09T10:01:56.292Z,17.10
2019-02-09T10:04:27.914Z,14.67
2019-02-09T10:06:59.403Z,15.97
2019-02-09T10:09:35.728Z,22.00
2019-02-09T10:12:06.366Z,16.47
2019-02-09T10:14:38.217Z,11.00
2019-02-09T10:17:09.364Z,15.17
2019-02-09T10:19:40.472Z,13.00
2019-02-09T10:22:11.414Z,16.30
2019-02-09T10:24:44.153Z,14.50
2019-02-09T10:27:16.075Z,12.50
2019-02-09T10:29:47.848Z,17.63
2019-02-09T10:32:19.100Z,16.43
2019-02-09T10:34:50.288Z,11.50
2019-02-09T10:37:21.294Z,16.73
2019-02-09T10:39:52.379Z,17.80
2019-02-09T10:42:22.860Z,15.17
2019-02-09T10:44:53.977Z,13.47
2019-02-09T10:47:25.501Z,15.50
2019-02-09T10:49:58.291Z,10.23
2019-02-09T10:52:28.895Z,18.03
2019-02-09T10:54:59.213Z,15.53
2019-02-09T10:57:30.811Z,17.83
2019-02-09T11:00:03.017Z,17.53
2019-02-09T11:02:33.198Z,15.83
2019-02-09T11:05:03.632Z,22.87
2019-02-09T11:07:34.693Z,16.00
2019-02-09T11:10:09.783Z,15.23
2019-02-09T11:12:40.754Z,17.53
2019-02-09T11:15:14.866Z,15.80
2019-02-09T11:17:46.398Z,18.23
2019-02-09T11:20:19.094Z,14.43
2019-02-09T11:22:50.967Z,17.97
2019-02-09T11:25:22.181Z,15.67
2019-02-09T11:27:53.310Z,10.23
2019-02-09T11:30:27.029Z,14.33
2019-02-09T11:33:02.085Z,15.43
2019-02-09T11:35:31.045Z,16.10
2019-02-09T11:38:01.797Z,14.53
2019-02-09T11:40:33.843Z,11.20
2019-02-09T11:43:06.029Z,12.57
2019-02-09T11:45:40.538Z,14.17
2019-02-09T11:48:13.324Z,13.27
2019-02-09T11:50:45.745Z,11.90
2019-02-09T11:53:16.869Z,12.70
2019-02-09T11:55:49.109Z,12.07
2019-02-09T11:58:21.662Z,14.60
2019-02-09T12:00:54.734Z,19.00
2019-02-09T12:03:26.347Z,19.20
2019-02-09T12:05:57.072Z,10.70
2019-02-09T12:08:28.261Z,16.17
2019-02-09T12:10:59.280Z,12.70
2019-02-09T12:13:31.324Z,13.43
2019-02-09T12:16:05.997Z,11.83
2019-02-09T12:18:37.118Z,14.53
2019-02-09T12:21:08.026Z,12.47
2019-02-09T12:23:39.098Z,16.47
2019-02-09T12:26:10.381Z,11.33
2019-02-09T12:28:42.383Z,9.83
2019-02-09T12:31:14.880Z,15.23
2019-02-09T12:33:46.226Z,16.93
2019-02-09T12:36:17.679Z,12.83
2019-02-09T12:38:49.623Z,12.57
2019-02-09T12:41:21.604Z,12.60
2019-02-09T12:43:53.431Z,12.40
2019-02-09T12:46:25.932Z,17.37
2019-02-09T12:48:57.259Z,18.00
2019-02-09T12:51:29.261Z,15.27
2019-02-09T12:54:00.325Z,17.10
2019-02-09T12:56:32.374Z,13.57
2019-02-09T12:59:04.347Z,14.00
2019-02-09T13:01:37.575Z,13.93
2019-02-09T13:04:09.431Z,12.13
2019-02-09T13:06:40.935Z,11.90
2019-02-09T13:09:14.600Z,11.83
2019-02-09T13:11:45.496Z,9.67
2019-02-09T13:14:15.738Z,13.13
2019-02-09T13:16:47.702Z,15.23
2019-02-09T13:19:18.935Z,10.67
2019-02-09T13:21:50.773Z,13.23
2019-02-09T13:24:22.147Z,13.77
2019-02-09T13:26:53.560Z,13.47
2019-02-09T13:29:24.314Z,8.77
2019-02-09T13:31:55.213Z,11.07
2019-02-09T13:34:27.445Z,13.20
2019-02-09T13:36:58.347Z,12.60
2019-02-09T13:39:29.128Z,12.83
2019-02-09T13:41:59.942Z,10.17
2019-02-09T13:44:31.322Z,12.37
2019-02-09T13:47:03.321Z,9.93
2019-02-09T13:49:35.338Z,9.93
2019-02-09T13:52:07.442Z,14.30
2019-02-09T13:54:38.561Z,10.90
2019-02-09T13:57:12.806Z,11.10
2019-02-09T13:59:46.256Z,17.77
2019-02-09T14:02:19.978Z,9.43
2019-02-09T14:04:50.615Z,10.10
2019-02-09T14:07:22.233Z,10.03
2019-02-09T14:09:53.494Z,9.13
2019-02-09T14:12:24.200Z,8.10
2019-02-09T14:14:54.834Z,10.10
2019-02-09T14:17:26.898Z,12.20
2019-02-09T14:19:58.542Z,11.27
2019-02-09T14:22:29.338Z,13.90
2019-02-09T14:25:00.540Z,15.90
2019-02-09T14:27:32.110Z,13.37
2019-02-09T14:30:05.359Z,16.70
2019-02-09T14:32:36.701Z,15.43
2019-02-09T14:35:13.248Z,10.90
2019-02-09T14:37:46.487Z,14.97
2019-02-09T14:40:20.886Z,12.43
2019-02-09T14:42:52.222Z,14.43
2019-02-09T14:45:25.738Z,14.50
2019-02-09T14:47:58.026Z,11.83
2019-02-09T14:50:29.242Z,13.93
2019-02-09T14:53:02.775Z,12.13
2019-02-09T14:55:35.602Z,12.53
2019-02-09T14:58:07.362Z,8.77
2019-02-09T15:00:50.181Z,10.80
2019-02-09T15:03:27.266Z,17.30
2019-02-09T15:05:54.938Z,13.67
2019-02-09T15:08:25.234Z,14.07
2019-02-09T15:10:56.746Z,25.20
2019-02-09T15:13:27.522Z,17.20
2019-02-09T15:16:16.915Z,15.80
2019-02-09T15:18:50.730Z,17.47
2019-02-09T15:21:23.279Z,18.67
2019-02-09T15:23:54.403Z,10.80
2019-02-09T15:26:25.060Z,19.80
2019-02-09T15:28:56.643Z,19.27
2019-02-09T15:31:27.777Z,19.67
2019-02-09T15:34:01.203Z,16.10
2019-02-09T15:36:32.438Z,16.90
2019-02-09T15:39:05.416Z,19.97
2019-02-09T15:41:36.377Z,16.67
2019-02-09T15:44:08.286Z,17.30
2019-02-09T15:46:39.855Z,15.50
2019-02-09T15:49:12.687Z,13.97
2019-02-09T15:51:43.834Z,17.93
2019-02-09T15:54:16.992Z,19.10
2019-02-09T15:56:47.020Z,18.50
2019-02-09T15:59:17.301Z,16.90
2019-02-09T16:01:48.119Z,16.40
2019-02-09T16:04:19.970Z,21.33
2019-02-09T16:06:52.381Z,17.27
2019-02-09T16:09:25.589Z,20.40
2019-02-09T16:11:56.774Z,17.17
2019-02-09T16:14:27.878Z,18.13
2019-02-09T16:16:59.787Z,16.10
2019-02-09T16:19:38.604Z,14.23
2019-02-09T16:22:11.027Z,14.50
2019-02-09T16:24:58.572Z,12.83
2019-02-09T16:27:31.133Z,13.53
2019-02-09T16:30:01.783Z,15.50
2019-02-09T16:32:34.299Z,14.63
2019-02-09T16:35:06.739Z,17.90
2019-02-09T16:37:38.366Z,17.83
2019-02-09T16:40:15.149Z,12.80
2019-02-09T16:42:50.299Z,16.00
2019-02-09T16:45:23.757Z,11.20
2019-02-09T16:47:53.962Z,16.27
2019-02-09T16:50:24.703Z,15.30
2019-02-09T16:52:54.917Z,16.23
2019-02-09T16:55:26.071Z,14.93
2019-02-09T16:57:56.385Z,15.77
2019-02-09T17:00:31.893Z,9.67
2019-02-09T17:03:02.431Z,11.73
2019-02-09T17:05:33.162Z,13.87
2019-02-09T17:08:05.985Z,16.27
2019-02-09T17:10:36.746Z,14.73
2019-02-09T17:13:07.472Z,9.50
2019-02-09T17:15:37.967Z,11.33
2019-02-09T17:18:12.460Z,15.90
2019-02-09T17:20:43.896Z,14.43
2019-02-09T17:23:17.282Z,15.00
2019-02-09T17:25:54.172Z,15.97
2019-02-09T17:28:26.360Z,14.10
2019-02-09T17:30:58.437Z,13.67
2019-02-09T17:33:33.986Z,10.80
2019-02-09T17:36:06.806Z,13.10
2019-02-09T17:38:38.213Z,10.90
2019-02-09T17:41:11.059Z,12.90
2019-02-09T17:43:44.020Z,14.57
2019-02-09T17:46:16.404Z,17.40
2019-02-09T17:48:47.093Z,10.23
2019-02-09T17:51:18.898Z,11.63
2019-02-09T17:53:50.720Z,12.30
2019-02-09T17:56:23.893Z,12.53
2019-02-09T17:58:54.639Z,12.27
2019-02-09T18:01:24.958Z,13.83
2019-02-09T18:03:56.095Z,15.03
2019-02-09T18:06:27.765Z,15.40
2019-02-09T18:08:58.812Z,11.73
2019-02-09T18:11:30.352Z,10.40
2019-02-09T18:14:01.070Z,15.20
2019-02-09T18:16:31.717Z,13.60
2019-02-09T18:19:01.953Z,21.30
2019-02-09T18:21:33.322Z,13.97
2019-02-09T18:24:04.096Z,12.23
2019-02-09T18:26:35.667Z,23.37
2019-02-09T18:29:06.296Z,25.13
2019-02-09T18:31:38.226Z,14.47
2019-02-09T18:34:09.345Z,21.67
2019-02-09T18:36:39.568Z,17.13
2019-02-09T18:39:12.685Z,13.73
2019-02-09T18:41:44.703Z,17.53
2019-02-09T18:44:15.902Z,18.07
2019-02-09T18:46:46.609Z,17.00
2019-02-09T18:49:17.195Z,18.43
2019-02-09T18:51:47.402Z,19.30
2019-02-09T18:54:18.446Z,16.30
2019-02-09T18:56:50.467Z,17.27
2019-02-09T18:59:20.720Z,16.27
2019-02-09T19:01:52.101Z,17.23
2019-02-09T19:04:22.303Z,13.97
2019-02-09T19:06:53.978Z,17.13
2019-02-09T19:09:24.268Z,16.07
2019-02-09T19:11:54.513Z,10.07
2019-02-09T19:14:26.595Z,14.63
2019-02-09T19:16:57.906Z,14.90
2019-02-09T19:19:28.236Z,10.07
2019-02-09T19:21:58.554Z,10.33
2019-02-09T19:24:28.856Z,9.77
2019-02-09T19:26:59.617Z,13.57
2019-02-09T19:29:31.350Z,12.00
2019-02-09T19:32:01.601Z,13.17
2019-02-09T19:34:33.381Z,15.70
2019-02-09T19:37:05.630Z,14.30
2019-02-09T19:39:36.716Z,14.27
2019-02-09T19:42:08.270Z,14.67
2019-02-09T19:44:40.396Z,12.23
2019-02-09T19:47:11.460Z,12.33
2019-02-09T19:49:43.546Z,13.67
2019-02-09T19:52:16.151Z,11.20
2019-02-09T19:54:47.945Z,12.93
2019-02-09T19:57:21.591Z,16.53
2019-02-09T19:59:54.474Z,13.47
2019-02-09T20:02:25.616Z,16.37
2019-02-09T20:04:56.688Z,20.27
2019-02-09T20:07:28.536Z,18.60
2019-02-09T20:09:59.691Z,19.63
2019-02-09T20:12:29.996Z,15.90
2019-02-09T20:15:03.809Z,19.07
2019-02-09T20:17:37.632Z,15.87
2019-02-09T20:20:10.699Z,13.53
2019-02-09T20:22:42.720Z,18.23
2019-02-09T20:25:16.862Z,17.67
2019-02-09T20:27:50.100Z,18.70
2019-02-09T20:30:32.177Z,19.33
2019-02-09T20:33:03.366Z,19.73
2019-02-09T20:35:33.588Z,15.77
2019-02-09T20:38:05.464Z,19.67
2019-02-09T20:40:42.206Z,19.43
2019-02-09T20:43:15.175Z,19.03
2019-02-09T20:45:51.066Z,18.07
2019-02-09T20:48:23.075Z,13.57
2019-02-09T20:50:53.753Z,18.97
2019-02-09T20:53:24.587Z,16.57
2019-02-09T20:55:54.809Z,14.10
2019-02-09T20:58:25.832Z,14.47
2019-02-09T21:00:58.273Z,17.73
2019-02-09T21:03:29.817Z,18.90
2019-02-09T21:06:01.319Z,13.53
2019-02-09T21:08:33.006Z,22.23
2019-02-09T21:11:04.510Z,16.47
2019-02-09T21:13:35.982Z,16.63
2019-02-09T21:16:09.071Z,16.43
2019-02-09T21:18:40.973Z,19.80
2019-02-09T21:21:12.522Z,16.43
2019-02-09T21:23:43.999Z,20.40
2019-02-09T21:26:15.052Z,23.23
2019-02-09T21:28:46.110Z,23.30
2019-02-09T21:31:17.274Z,17.23
2019-02-09T21:33:48.914Z,19.07
2019-02-09T21:36:20.363Z,20.00
2019-02-09T21:38:53.067Z,19.93
2019-02-09T21:41:25.137Z,14.93
2019-02-09T21:43:55.887Z,21.37
2019-02-09T21:46:27.505Z,22.83
2019-02-09T21:48:58.265Z,21.70
2019-02-09T21:51:29.463Z,14.00
2019-02-09T21:54:00.786Z,15.30
2019-02-09T21:56:32.467Z,23.27
2019-02-09T21:59:05.059Z,21.93
2019-02-09T22:01:37.057Z,15.73
2019-02-09T22:04:08.082Z,16.27
2019-02-09T22:06:39.551Z,16.47
2019-02-09T22:09:10.461Z,21.97
2019-02-09T22:11:40.724Z,23.63
2019-02-09T22:14:12.017Z,17.13
2019-02-09T22:16:42.788Z,14.53
2019-02-09T22:19:13.009Z,24.70
2019-02-09T22:21:44.261Z,22.57
2019-02-09T22:24:15.477Z,25.70
2019-02-09T22:26:47.272Z,24.57
2019-02-09T22:29:18.289Z,18.43
2019-02-09T22:31:50.911Z,20.47
2019-02-09T22:34:23.029Z,21.90
2019-02-09T22:36:55.748Z,22.53
2019-02-09T22:39:25.994Z,19.30
2019-02-09T22:41:58.104Z,19.80
2019-02-09T22:44:28.696Z,23.07
2019-02-09T22:47:02.397Z,20.00
2019-02-09T22:49:32.688Z,24.37
2019-02-09T22:52:03.384Z,20.73
2019-02-09T22:54:34.978Z,17.00
2019-02-09T22:57:06.430Z,26.07
2019-02-09T22:59:38.684Z,17.60
2019-02-09T23:02:10.181Z,25.47
2019-02-09T23:05:27.355Z,17.80
2019-02-09T23:08:04.347Z,21.03
2019-02-09T23:10:35.322Z,21.67
2019-02-09T23:13:07.943Z,18.40
2019-02-09T23:15:39.092Z,24.83
2019-02-09T23:18:09.309Z,25.43
2019-02-09T23:20:39.512Z,16.90
2019-02-09T23:23:10.642Z,21.60
2019-02-09T23:25:42.418Z,21.93
2019-02-09T23:28:13.362Z,15.03
2019-02-09T23:30:44.621Z,19.17
2019-02-09T23:33:16.303Z,25.40
2019-02-09T23:35:47.405Z,19.17
2019-02-09T23:38:19.575Z,22.97
2019-02-09T23:40:49.982Z,20.87
2019-02-09T23:43:20.682Z,19.90
2019-02-09T23:45:51.801Z,23.67
2019-02-09T23:48:22.462Z,19.77
2019-02-09T23:50:53.571Z,20.50
2019-02-09T23:53:25.599Z,21.03
2019-02-09T23:55:56.866Z,18.73
2019-02-09T23:58:27.110Z,16.10
